createdAt,value
2022-12-04T00:01:57.406Z,1.12
2022-12-04T00:04:23.763Z,1.09
2022-12-04T00:06:54.127Z,1.13
2022-12-04T00:09:24.706Z,1.11
2022-12-04T00:11:52.355Z,1.12
2022-12-04T00:14:18.716Z,1.14
2022-12-04T00:16:45.056Z,1.09
2022-12-04T00:19:11.488Z,1.11
2022-12-04T00:21:37.814Z,1.12
2022-12-04T00:24:04.587Z,1.14
2022-12-04T00:26:30.888Z,1.03
2022-12-04T00:28:58.771Z,1.07
2022-12-04T00:31:26.092Z,1.04
2022-12-04T00:33:52.847Z,1.06
2022-12-04T00:36:20.070Z,1.06
2022-12-04T00:38:46.828Z,1.06
2022-12-04T00:41:14.155Z,1.03
2022-12-04T00:43:40.748Z,1.04
2022-12-04T00:46:08.758Z,1.07
2022-12-04T00:48:35.484Z,1.06
2022-12-04T00:51:02.353Z,1.09
2022-12-04T00:53:28.632Z,1.09
2022-12-04T00:55:54.928Z,1.07
2022-12-04T00:58:21.251Z,1.09
2022-12-04T01:00:47.596Z,1.03
2022-12-04T01:03:15.334Z,1.00
2022-12-04T01:05:43.477Z,1.03
2022-12-04T01:08:11.042Z,1.06
2022-12-04T01:10:38.086Z,1.05
2022-12-04T01:13:04.373Z,1.04
2022-12-04T01:15:30.656Z,1.08
2022-12-04T01:17:57.477Z,1.07
2022-12-04T01:20:25.141Z,1.05
2022-12-04T01:22:51.434Z,1.05
2022-12-04T01:25:17.719Z,1.05
2022-12-04T01:27:44.014Z,1.06
2022-12-04T01:30:10.730Z,1.01
2022-12-04T01:32:36.999Z,0.99
2022-12-04T01:35:03.482Z,1.01
2022-12-04T01:37:32.044Z,1.02
2022-12-04T01:39:58.528Z,1.05
2022-12-04T01:42:25.040Z,1.03
2022-12-04T01:45:06.194Z,1.03
2022-12-04T01:47:32.644Z,1.04
2022-12-04T01:49:59.452Z,1.05
2022-12-04T01:52:26.432Z,1.07
2022-12-04T01:54:56.558Z,1.08
2022-12-04T01:57:24.806Z,1.09
2022-12-04T01:59:52.464Z,1.09
2022-12-04T02:02:22.131Z,1.08
2022-12-04T02:04:48.887Z,1.06
2022-12-04T02:07:15.190Z,1.03
2022-12-04T02:09:42.072Z,1.06
2022-12-04T02:12:15.106Z,1.03
2022-12-04T02:14:44.901Z,1.03
2022-12-04T02:17:14.642Z,1.03
2022-12-04T02:19:52.002Z,1.05
2022-12-04T02:22:24.418Z,0.99
2022-12-04T02:24:53.455Z,1.01
2022-12-04T02:27:28.412Z,1.03
2022-12-04T02:29:58.051Z,1.02
2022-12-04T02:32:28.957Z,1.00
2022-12-04T02:34:57.251Z,1.03
2022-12-04T02:37:27.543Z,1.00
2022-12-04T02:39:56.588Z,1.03
2022-12-04T02:42:29.993Z,1.01
2022-12-04T02:45:01.369Z,1.03
2022-12-04T02:47:27.911Z,1.01
2022-12-04T02:49:56.840Z,1.01
2022-12-04T02:52:26.913Z,1.00
2022-12-04T02:54:57.066Z,0.99
2022-12-04T02:57:25.993Z,0.99
2022-12-04T02:59:53.989Z,1.00
2022-12-04T03:02:25.269Z,1.02
2022-12-04T03:04:54.259Z,1.03
2022-12-04T03:07:24.273Z,1.00
2022-12-04T03:09:52.267Z,0.98
2022-12-04T03:12:20.204Z,0.98
2022-12-04T03:14:48.917Z,0.96
2022-12-04T03:17:17.887Z,1.00
2022-12-04T03:19:48.380Z,0.96
2022-12-04T03:22:16.495Z,1.00
2022-12-04T03:24:45.427Z,1.00
2022-12-04T03:27:13.878Z,0.95
2022-12-04T03:29:42.428Z,0.96
2022-12-04T03:32:11.156Z,0.98
2022-12-04T03:34:39.617Z,1.00
2022-12-04T03:37:10.281Z,1.00
2022-12-04T03:39:42.105Z,0.99
2022-12-04T03:42:13.579Z,1.00
2022-12-04T03:44:41.845Z,0.98
2022-12-04T03:47:10.382Z,1.00
2022-12-04T03:49:40.053Z,0.98
2022-12-04T03:52:11.070Z,1.01
2022-12-04T03:54:40.647Z,0.99
2022-12-04T03:57:10.521Z,0.98
2022-12-04T03:59:38.934Z,1.00
2022-12-04T04:02:08.252Z,0.96
2022-12-04T04:04:36.381Z,0.97
2022-12-04T04:07:04.838Z,0.97
2022-12-04T04:09:35.713Z,0.92
2022-12-04T04:12:05.161Z,0.99
2022-12-04T04:14:35.149Z,0.99
2022-12-04T04:17:03.219Z,0.98
2022-12-04T04:19:31.061Z,0.97
2022-12-04T04:21:58.544Z,0.98
2022-12-04T04:24:28.565Z,0.97
2022-12-04T04:26:58.032Z,0.94
2022-12-04T04:29:24.453Z,0.97
2022-12-04T04:31:53.702Z,0.98
2022-12-04T04:34:25.366Z,0.96
2022-12-04T04:36:54.766Z,0.98
2022-12-04T04:39:24.580Z,0.96
2022-12-04T04:41:54.235Z,0.95
2022-12-04T04:44:26.102Z,0.96
2022-12-04T04:46:53.778Z,0.94
2022-12-04T04:49:23.283Z,0.98
2022-12-04T04:51:49.809Z,0.96
2022-12-04T04:54:16.658Z,0.95
2022-12-04T04:56:43.970Z,0.89
2022-12-04T04:59:10.693Z,0.87
2022-12-04T05:01:38.805Z,0.92
2022-12-04T05:04:05.928Z,0.91
2022-12-04T05:06:32.243Z,0.91
2022-12-04T05:08:58.549Z,0.93
2022-12-04T05:11:24.859Z,0.96
2022-12-04T05:13:51.213Z,0.97
2022-12-04T05:16:17.580Z,0.98
2022-12-04T05:18:45.300Z,0.98
2022-12-04T05:21:12.648Z,0.97
2022-12-04T05:23:38.915Z,0.90
2022-12-04T05:26:05.398Z,0.87
2022-12-04T05:28:31.706Z,0.96
2022-12-04T05:30:58.568Z,0.95
2022-12-04T05:33:24.907Z,0.96
2022-12-04T05:35:59.732Z,1.01
2022-12-04T05:38:26.123Z,0.96
2022-12-04T05:40:52.558Z,0.99
2022-12-04T05:43:19.090Z,0.98
2022-12-04T05:45:45.407Z,0.97
2022-12-04T05:48:11.727Z,0.96
2022-12-04T05:50:38.026Z,0.99
2022-12-04T05:53:05.660Z,0.93
2022-12-04T05:55:31.976Z,0.93
2022-12-04T05:57:58.295Z,0.92
2022-12-04T06:00:24.572Z,0.99
2022-12-04T06:02:50.942Z,0.98
2022-12-04T06:05:17.351Z,1.01
2022-12-04T06:07:43.724Z,0.98
2022-12-04T06:10:11.453Z,1.02
2022-12-04T06:12:37.794Z,0.99
2022-12-04T06:15:04.551Z,0.99
2022-12-04T06:17:30.912Z,0.99
2022-12-04T06:19:57.428Z,1.01
2022-12-04T06:22:24.013Z,0.96
2022-12-04T06:24:50.284Z,0.98
2022-12-04T06:27:33.245Z,0.97
2022-12-04T06:29:59.754Z,0.97
2022-12-04T06:32:26.234Z,0.92
2022-12-04T06:34:53.251Z,0.96
2022-12-04T06:37:20.015Z,0.97
2022-12-04T06:39:46.299Z,0.94
2022-12-04T06:42:12.656Z,0.94
2022-12-04T06:44:40.273Z,0.92
2022-12-04T06:47:06.578Z,0.95
2022-12-04T06:49:33.019Z,0.93
2022-12-04T06:51:59.294Z,0.89
2022-12-04T06:54:25.629Z,0.85
2022-12-04T06:56:51.940Z,0.82
2022-12-04T06:59:18.222Z,0.80
2022-12-04T07:01:45.884Z,0.77
2022-12-04T07:04:12.198Z,0.74
2022-12-04T07:06:38.926Z,0.76
2022-12-04T07:09:06.624Z,0.75
2022-12-04T07:11:33.165Z,0.73
2022-12-04T07:13:59.484Z,0.76
2022-12-04T07:16:26.819Z,0.76
2022-12-04T07:18:54.665Z,0.72
2022-12-04T07:21:21.739Z,0.73
2022-12-04T07:23:49.294Z,0.70
2022-12-04T07:26:15.570Z,0.74
2022-12-04T07:28:41.877Z,0.76
2022-12-04T07:31:09.696Z,0.77
2022-12-04T07:33:36.379Z,0.77
2022-12-04T07:36:05.487Z,0.78
2022-12-04T07:38:32.004Z,0.77
2022-12-04T07:40:58.878Z,0.77
2022-12-04T07:43:25.691Z,0.82
2022-12-04T07:45:52.101Z,0.82
2022-12-04T07:48:18.844Z,0.88
2022-12-04T07:50:45.135Z,0.88
2022-12-04T07:53:12.878Z,0.86
2022-12-04T07:55:39.207Z,0.86
2022-12-04T07:58:05.695Z,0.87
2022-12-04T08:00:32.181Z,0.94
2022-12-04T08:02:58.504Z,0.90
2022-12-04T08:05:24.819Z,0.96
2022-12-04T08:07:51.195Z,0.97
2022-12-04T08:10:18.945Z,0.92
2022-12-04T08:12:45.249Z,0.95
2022-12-04T08:15:11.555Z,0.99
2022-12-04T08:17:37.846Z,1.05
2022-12-04T08:20:04.621Z,1.07
2022-12-04T08:22:30.975Z,1.07
2022-12-04T08:24:57.344Z,1.11
2022-12-04T08:27:25.000Z,1.15
2022-12-04T08:29:51.294Z,1.17
2022-12-04T08:32:17.606Z,1.17
2022-12-04T08:34:43.921Z,1.16
2022-12-04T08:37:10.239Z,1.17
2022-12-04T08:39:36.516Z,1.18
2022-12-04T08:42:02.806Z,1.20
2022-12-04T08:44:30.455Z,1.21
2022-12-04T08:46:56.753Z,1.28
2022-12-04T08:49:23.035Z,1.28
2022-12-04T08:51:49.362Z,1.30
2022-12-04T08:54:15.665Z,1.32
2022-12-04T08:56:41.975Z,1.34
2022-12-04T08:59:11.020Z,1.32
2022-12-04T09:01:38.709Z,1.32
2022-12-04T09:04:05.250Z,1.36
2022-12-04T09:06:31.669Z,1.39
2022-12-04T09:08:57.948Z,1.42
2022-12-04T09:11:25.077Z,1.46
2022-12-04T09:13:51.603Z,1.43
2022-12-04T09:16:19.051Z,1.45
2022-12-04T09:18:47.247Z,1.46
2022-12-04T09:21:15.730Z,1.48
2022-12-04T09:23:42.084Z,1.54
2022-12-04T09:26:16.010Z,1.53
2022-12-04T09:28:42.332Z,1.54
2022-12-04T09:31:08.705Z,1.54
2022-12-04T09:33:35.025Z,1.40
2022-12-04T09:36:03.200Z,1.37
2022-12-04T09:38:29.967Z,1.35
2022-12-04T09:40:59.958Z,1.39
2022-12-04T09:43:30.546Z,1.36
2022-12-04T09:46:01.211Z,1.26
2022-12-04T09:48:32.022Z,1.29
2022-12-04T09:50:59.286Z,1.32
2022-12-04T09:53:28.856Z,1.32
2022-12-04T09:55:58.833Z,1.35
2022-12-04T09:58:27.911Z,1.30
2022-12-04T10:00:55.250Z,1.29
2022-12-04T10:03:24.557Z,1.33
2022-12-04T10:05:54.519Z,1.36
2022-12-04T10:08:22.578Z,1.37
2022-12-04T10:10:56.044Z,1.32
2022-12-04T10:13:30.782Z,1.35
2022-12-04T10:16:00.716Z,1.33
2022-12-04T10:18:37.599Z,1.34
2022-12-04T10:21:14.987Z,1.39
2022-12-04T10:23:48.781Z,1.39
2022-12-04T10:26:17.803Z,1.44
2022-12-04T10:28:53.493Z,1.44
2022-12-04T10:31:21.737Z,1.40
2022-12-04T10:33:50.088Z,1.48
2022-12-04T10:36:17.686Z,1.43
2022-12-04T10:38:45.648Z,1.51
2022-12-04T10:41:16.154Z,1.52
2022-12-04T10:43:44.620Z,1.54
2022-12-04T10:46:13.007Z,1.57
2022-12-04T10:48:40.437Z,1.51
2022-12-04T10:51:12.805Z,1.51
2022-12-04T10:53:39.123Z,1.49
2022-12-04T10:56:09.299Z,1.48
2022-12-04T10:58:35.690Z,1.49
2022-12-04T11:01:05.096Z,1.50
2022-12-04T11:03:31.985Z,1.50
2022-12-04T11:06:00.021Z,1.51
2022-12-04T11:08:30.937Z,1.51
2022-12-04T11:10:59.855Z,1.49
2022-12-04T11:13:26.180Z,1.52
2022-12-04T11:15:53.656Z,1.48
2022-12-04T11:18:22.113Z,1.46
2022-12-04T11:20:53.466Z,1.50
2022-12-04T11:23:20.254Z,1.43
2022-12-04T11:25:47.465Z,1.45
2022-12-04T11:28:39.853Z,1.50
2022-12-04T11:31:04.796Z,1.50
2022-12-04T11:33:37.192Z,1.53
2022-12-04T11:36:06.071Z,1.50
2022-12-04T11:38:34.061Z,1.49
2022-12-04T11:41:02.343Z,1.50
2022-12-04T11:43:29.888Z,1.52
2022-12-04T11:45:56.984Z,1.54
2022-12-04T11:48:23.262Z,1.55
2022-12-04T11:50:54.623Z,1.59
2022-12-04T11:53:25.224Z,1.62
2022-12-04T11:56:13.449Z,1.65
2022-12-04T11:58:45.179Z,1.67
2022-12-04T12:01:18.069Z,1.67
2022-12-04T12:03:51.531Z,1.66
2022-12-04T12:06:29.769Z,1.64
2022-12-04T12:09:02.921Z,1.69
2022-12-04T12:11:32.769Z,1.66
2022-12-04T12:14:04.944Z,1.64
2022-12-04T12:16:35.261Z,1.66
2022-12-04T12:19:22.250Z,1.65
2022-12-04T12:21:54.385Z,1.64
2022-12-04T12:24:24.570Z,1.68
2022-12-04T12:26:55.678Z,1.69
2022-12-04T12:29:29.495Z,1.70
2022-12-04T12:32:04.230Z,1.73
2022-12-04T12:34:35.822Z,1.75
2022-12-04T12:37:07.875Z,1.76
2022-12-04T12:39:38.600Z,1.79
2022-12-04T12:42:06.122Z,1.79
2022-12-04T12:44:35.463Z,1.80
2022-12-04T12:47:05.629Z,1.82
2022-12-04T12:49:35.634Z,1.79
2022-12-04T12:52:06.272Z,1.81
2022-12-04T12:54:37.376Z,1.78
2022-12-04T12:57:05.890Z,1.78
2022-12-04T12:59:32.816Z,1.78
2022-12-04T13:02:03.360Z,1.76
2022-12-04T13:04:33.457Z,1.77
2022-12-04T13:07:04.106Z,1.81
2022-12-04T13:09:33.462Z,1.73
2022-12-04T13:12:01.552Z,1.71
2022-12-04T13:14:27.833Z,1.73
2022-12-04T13:16:57.193Z,1.72
2022-12-04T13:19:25.151Z,1.67
2022-12-04T13:21:58.296Z,1.74
2022-12-04T13:24:39.463Z,1.62
2022-12-04T13:27:10.606Z,1.67
2022-12-04T13:29:41.719Z,1.71
2022-12-04T13:32:23.860Z,1.73
2022-12-04T13:35:00.534Z,1.72
2022-12-04T13:37:42.080Z,1.73
2022-12-04T13:40:29.221Z,1.71
2022-12-04T13:43:10.515Z,1.74
2022-12-04T13:45:40.154Z,1.77
2022-12-04T13:48:06.483Z,1.79
2022-12-04T13:50:33.747Z,1.77
2022-12-04T13:53:00.780Z,1.73
2022-12-04T13:55:31.435Z,1.75
2022-12-04T13:57:58.872Z,1.69
2022-12-04T14:00:26.879Z,1.72
2022-12-04T14:02:55.707Z,1.63
2022-12-04T14:05:26.328Z,1.70
2022-12-04T14:08:00.852Z,1.69
2022-12-04T14:10:32.454Z,1.72
2022-12-04T14:13:00.295Z,1.68
2022-12-04T14:15:27.947Z,1.72
2022-12-04T14:18:00.084Z,1.73
2022-12-04T14:20:27.265Z,1.69
2022-12-04T14:22:53.590Z,1.70
2022-12-04T14:25:31.987Z,1.72
2022-12-04T14:27:58.356Z,1.75
2022-12-04T14:30:25.806Z,1.78
2022-12-04T14:32:53.561Z,1.81
2022-12-04T14:35:22.996Z,1.80
2022-12-04T14:37:52.418Z,1.77
2022-12-04T14:40:20.462Z,1.75
2022-12-04T14:42:48.306Z,1.81
2022-12-04T14:45:21.666Z,1.85
2022-12-04T14:47:50.553Z,1.85
2022-12-04T14:50:26.260Z,1.83
2022-12-04T14:52:56.243Z,1.80
2022-12-04T14:55:29.743Z,1.80
2022-12-04T14:57:58.937Z,1.83
2022-12-04T15:00:27.069Z,1.84
2022-12-04T15:02:54.888Z,1.83
2022-12-04T15:05:25.205Z,1.86
2022-12-04T15:07:53.348Z,1.89
2022-12-04T15:10:21.804Z,1.91
2022-12-04T15:12:49.321Z,1.91
2022-12-04T15:15:17.243Z,1.91
2022-12-04T15:17:43.596Z,1.92
2022-12-04T15:20:11.338Z,1.94
2022-12-04T15:22:38.992Z,1.89
2022-12-04T15:25:05.709Z,1.91
2022-12-04T15:27:34.104Z,1.92
2022-12-04T15:30:01.550Z,1.93
2022-12-04T15:32:29.237Z,1.95
2022-12-04T15:35:00.115Z,1.94
2022-12-04T15:37:26.998Z,1.96
2022-12-04T15:39:55.574Z,1.94
2022-12-04T15:42:25.686Z,1.93
2022-12-04T15:44:55.433Z,1.91
2022-12-04T15:47:23.092Z,1.93
2022-12-04T15:49:49.434Z,1.98
2022-12-04T15:52:16.444Z,1.96
2022-12-04T15:54:43.766Z,1.98
2022-12-04T15:57:17.501Z,2.01
2022-12-04T15:59:48.268Z,2.01
2022-12-04T16:02:22.565Z,2.04
2022-12-04T16:04:49.098Z,2.04
2022-12-04T16:07:19.530Z,2.06
2022-12-04T16:09:50.776Z,2.10
2022-12-04T16:12:19.360Z,2.06
2022-12-04T16:14:45.682Z,2.07
2022-12-04T16:17:13.167Z,2.08
2022-12-04T16:19:40.617Z,2.11
2022-12-04T16:22:10.659Z,2.12
2022-12-04T16:24:36.955Z,2.13
2022-12-04T16:27:09.898Z,2.18
2022-12-04T16:29:37.552Z,2.10
2022-12-04T16:32:04.050Z,2.14
2022-12-04T16:34:30.492Z,2.12
2022-12-04T16:36:56.785Z,2.12
2022-12-04T16:39:23.066Z,2.13
2022-12-04T16:41:49.371Z,2.12
2022-12-04T16:44:16.102Z,2.14
2022-12-04T16:46:43.977Z,2.15
2022-12-04T16:49:11.167Z,2.11
2022-12-04T16:51:38.383Z,2.11
2022-12-04T16:54:04.941Z,2.09
2022-12-04T16:56:31.370Z,2.13
2022-12-04T16:58:57.674Z,2.13
2022-12-04T17:01:25.481Z,2.13
2022-12-04T17:03:53.287Z,2.13
2022-12-04T17:06:19.961Z,2.14
2022-12-04T17:08:46.271Z,2.18
2022-12-04T17:11:13.356Z,2.20
2022-12-04T17:13:39.819Z,2.19
2022-12-04T17:16:06.276Z,2.15
2022-12-04T17:18:32.624Z,2.15
2022-12-04T17:21:03.667Z,2.16
2022-12-04T17:23:29.990Z,2.21
2022-12-04T17:26:00.034Z,2.21
2022-12-04T17:28:26.380Z,2.28
2022-12-04T17:30:53.886Z,2.32
2022-12-04T17:33:20.183Z,2.29
2022-12-04T17:35:46.498Z,2.29
2022-12-04T17:38:14.114Z,2.24
2022-12-04T17:40:40.439Z,2.22
2022-12-04T17:43:06.723Z,2.20
2022-12-04T17:45:32.986Z,2.18
2022-12-04T17:47:59.638Z,2.20
2022-12-04T17:50:26.062Z,2.23
2022-12-04T17:52:52.370Z,2.21
2022-12-04T17:55:20.016Z,2.23
2022-12-04T17:57:46.287Z,2.21
2022-12-04T18:00:12.901Z,2.21
2022-12-04T18:02:39.303Z,2.23
2022-12-04T18:05:05.721Z,2.25
2022-12-04T18:07:32.046Z,2.26
2022-12-04T18:09:58.664Z,2.29
2022-12-04T18:12:26.676Z,2.27
2022-12-04T18:14:53.017Z,2.26
2022-12-04T18:17:19.370Z,2.24
2022-12-04T18:19:45.642Z,2.24
2022-12-04T18:22:11.950Z,2.20
2022-12-04T18:24:38.435Z,2.21
2022-12-04T18:27:04.763Z,2.22
2022-12-04T18:29:32.388Z,2.22
2022-12-04T18:31:58.733Z,2.24
2022-12-04T18:34:25.068Z,2.25
2022-12-04T18:36:51.368Z,2.26
2022-12-04T18:39:18.599Z,2.25
2022-12-04T18:41:45.314Z,2.31
2022-12-04T18:44:11.791Z,2.25
2022-12-04T18:46:39.577Z,2.27
2022-12-04T18:49:06.302Z,2.28
2022-12-04T18:51:37.750Z,2.31
2022-12-04T18:54:05.196Z,2.33
2022-12-04T18:56:32.641Z,2.32
2022-12-04T18:58:59.821Z,2.30
2022-12-04T19:03:49.065Z,2.29
2022-12-04T19:06:15.456Z,2.35
2022-12-04T19:08:43.426Z,2.34
2022-12-04T19:11:10.917Z,2.34
2022-12-04T19:13:38.437Z,2.34
2022-12-04T19:16:05.011Z,2.40
2022-12-04T19:18:31.560Z,2.33
2022-12-04T19:20:59.223Z,2.35
2022-12-04T19:23:25.522Z,2.40
2022-12-04T19:25:55.115Z,2.36
2022-12-04T19:28:21.541Z,2.35
2022-12-04T19:30:47.847Z,2.38
2022-12-04T19:33:14.190Z,2.33
2022-12-04T19:35:40.731Z,2.35
2022-12-04T19:38:08.435Z,2.35
2022-12-04T19:40:36.383Z,2.33
2022-12-04T19:43:03.313Z,2.35
2022-12-04T19:45:29.895Z,2.35
2022-12-04T19:47:57.561Z,2.37
2022-12-04T19:50:23.903Z,2.40
2022-12-04T19:52:50.204Z,2.34
2022-12-04T19:55:17.868Z,2.38
2022-12-04T19:57:44.194Z,2.35
2022-12-04T20:00:10.748Z,2.35
2022-12-04T20:02:37.077Z,2.39
2022-12-04T20:05:03.771Z,2.32
2022-12-04T20:07:30.162Z,2.30
2022-12-04T20:09:56.912Z,2.34
2022-12-04T20:12:24.843Z,2.32
2022-12-04T20:14:51.188Z,2.32
2022-12-04T20:17:17.519Z,2.31
2022-12-04T20:19:43.889Z,2.29
2022-12-04T20:22:10.291Z,2.29
2022-12-04T20:24:36.649Z,2.35
2022-12-04T20:27:03.003Z,2.30
2022-12-04T20:29:30.718Z,2.33
2022-12-04T20:31:57.059Z,2.26
2022-12-04T20:34:23.361Z,2.27
2022-12-04T20:36:49.731Z,2.31
2022-12-04T20:39:16.571Z,2.30
2022-12-04T20:41:42.976Z,2.29
2022-12-04T20:44:12.014Z,2.29
2022-12-04T20:46:40.040Z,2.31
2022-12-04T20:49:08.215Z,2.31
2022-12-04T20:51:35.760Z,2.33
2022-12-04T20:54:02.172Z,2.34
2022-12-04T20:56:29.634Z,2.31
2022-12-04T20:58:56.388Z,2.30
2022-12-04T21:01:22.994Z,2.30
2022-12-04T21:03:51.474Z,2.28
2022-12-04T21:06:19.051Z,2.32
2022-12-04T21:08:45.977Z,2.33
2022-12-04T21:11:12.297Z,2.29
2022-12-04T21:13:38.851Z,2.31
2022-12-04T21:16:05.351Z,2.33
2022-12-04T21:18:31.741Z,2.33
2022-12-04T21:21:01.106Z,2.33
2022-12-04T21:23:27.455Z,2.33
2022-12-04T21:25:54.864Z,2.30
2022-12-04T21:28:21.164Z,2.30
2022-12-04T21:30:47.555Z,2.31
2022-12-04T21:33:13.978Z,2.31
2022-12-04T21:35:40.294Z,2.30
2022-12-04T21:38:07.976Z,2.31
2022-12-04T21:40:38.996Z,2.30
2022-12-04T21:43:08.430Z,2.30
2022-12-04T21:45:34.740Z,2.32
2022-12-04T21:48:01.076Z,2.30
2022-12-04T21:50:27.406Z,2.31
2022-12-04T21:52:54.259Z,2.33
2022-12-04T21:55:21.975Z,2.34
2022-12-04T21:57:48.260Z,2.37
2022-12-04T22:00:15.057Z,2.34
2022-12-04T22:02:41.452Z,2.36
2022-12-04T22:05:08.388Z,2.38
2022-12-04T22:07:34.772Z,2.41
2022-12-04T22:10:05.460Z,2.41
2022-12-04T22:12:52.115Z,2.41
2022-12-04T22:15:18.487Z,2.35
2022-12-04T22:17:44.891Z,2.35
2022-12-04T22:20:11.442Z,2.32
2022-12-04T22:22:37.843Z,2.33
2022-12-04T22:25:04.354Z,2.32
2022-12-04T22:27:30.696Z,2.34
2022-12-04T22:29:58.472Z,2.35
2022-12-04T22:32:24.772Z,2.32
2022-12-04T22:34:51.139Z,2.33
2022-12-04T22:37:17.535Z,2.32
2022-12-04T22:39:43.871Z,2.33
2022-12-04T22:42:10.167Z,2.33
2022-12-04T22:44:36.479Z,2.35
2022-12-04T22:47:04.378Z,2.37
2022-12-04T22:49:30.735Z,2.34
2022-12-04T22:51:57.615Z,2.37
2022-12-04T22:54:23.936Z,2.38
2022-12-04T22:56:50.278Z,2.39
2022-12-04T22:59:16.574Z,2.37
2022-12-04T23:01:42.880Z,2.37
2022-12-04T23:04:10.543Z,2.38
2022-12-04T23:06:36.853Z,2.41
2022-12-04T23:09:04.474Z,2.43
2022-12-04T23:11:31.041Z,2.43
2022-12-04T23:13:58.367Z,2.41
2022-12-04T23:16:24.817Z,2.40
2022-12-04T23:18:51.498Z,2.39
2022-12-04T23:21:19.739Z,2.42
2022-12-04T23:23:46.514Z,2.41
2022-12-04T23:26:13.867Z,2.41
2022-12-04T23:28:40.222Z,2.44
2022-12-04T23:31:06.601Z,2.45
2022-12-04T23:33:33.300Z,2.45
2022-12-04T23:36:00.793Z,2.49
2022-12-04T23:38:28.825Z,2.49
2022-12-04T23:41:00.279Z,2.45
2022-12-04T23:43:26.549Z,2.43
2022-12-04T23:45:52.844Z,2.45
2022-12-04T23:48:19.158Z,2.48
2022-12-04T23:50:45.454Z,2.47
2022-12-04T23:53:11.740Z,2.46
2022-12-04T23:55:39.366Z,2.47
2022-12-04T23:58:05.666Z,2.48
